Time;durP1;ratioP1;P1;durP2;ratioP2;P2;SDS_P1;SDS_P2;PMS_P1;PMS_P2;Temp;Humidity;BMP_temperature;BMP_pressure;BME280_temperature;BME280_humidity;BME280_pressure;Samples;Min_cycle;Max_cycle;Signal;HPM_P1;HPM_P2
2022/11/06 00:01:11;;;;;;;10.45;6.00;;;9.90;99.90;;;;;;5115216;28;20047;-67
2022/11/06 00:03:36;;;;;;;10.25;5.40;;;9.90;99.90;;;;;;5109541;28;20039;-67
2022/11/06 00:08:57;;;;;;;11.70;6.13;;;9.90;99.90;;;;;;5105541;28;20044;-67
2022/11/06 00:11:23;;;;;;;10.07;5.38;;;9.90;99.90;;;;;;5108172;28;20115;-65
2022/11/06 00:13:51;;;;;;;11.90;5.47;;;9.90;99.90;;;;;;5108966;28;20118;-66
2022/11/06 00:16:18;;;;;;;11.25;6.13;;;9.90;99.90;;;;;;5092061;28;20043;-66
2022/11/06 00:18:44;;;;;;;10.02;5.20;;;9.90;99.90;;;;;;5110424;28;20051;-66
2022/11/06 00:21:24;;;;;;;11.48;5.82;;;9.80;99.90;;;;;;5108890;28;20053;-66
2022/11/06 00:23:50;;;;;;;8.73;5.88;;;9.90;99.90;;;;;;5106359;28;20044;-65
2022/11/06 00:26:18;;;;;;;11.10;6.50;;;9.80;99.90;;;;;;5108708;28;20032;-67
2022/11/06 00:28:45;;;;;;;9.93;5.85;;;9.80;99.90;;;;;;5107595;28;20050;-67
2022/11/06 00:31:13;;;;;;;9.88;6.00;;;9.70;99.90;;;;;;5108213;28;20036;-66
2022/11/06 00:33:39;;;;;;;11.35;6.13;;;9.70;99.90;;;;;;5109105;28;20066;-67
2022/11/06 00:36:07;;;;;;;11.05;5.80;;;9.70;99.90;;;;;;5091161;28;20490;-66
2022/11/06 00:38:33;;;;;;;9.10;6.03;;;9.70;99.90;;;;;;5107198;28;20048;-67
2022/11/06 00:41:03;;;;;;;12.82;6.53;;;9.60;99.90;;;;;;5108888;28;20045;-66
2022/11/06 00:43:29;;;;;;;8.25;5.45;;;9.60;99.90;;;;;;5109229;28;20486;-65
2022/11/06 00:46:10;;;;;;;8.68;5.53;;;9.60;99.90;;;;;;5106963;28;20096;-67
2022/11/06 00:48:37;;;;;;;10.90;6.53;;;9.60;99.90;;;;;;5112615;28;20039;-67
2022/11/06 00:51:02;;;;;;;10.55;5.57;;;9.60;99.90;;;;;;5112521;28;20118;-67
2022/11/06 00:53:28;;;;;;;10.43;6.15;;;9.60;99.90;;;;;;5112316;28;20118;-66
2022/11/06 00:55:54;;;;;;;11.80;5.70;;;9.60;99.90;;;;;;5111886;28;20035;-65
2022/11/06 00:58:19;;;;;;;12.13;5.53;;;9.60;99.90;;;;;;5112184;28;20039;-66
2022/11/06 01:00:45;;;;;;;9.52;5.50;;;9.60;99.90;;;;;;5111017;28;20039;-66
2022/11/06 01:03:10;;;;;;;10.13;5.38;;;9.60;99.90;;;;;;5112327;28;20110;-66
2022/11/06 01:05:36;;;;;;;11.15;6.07;;;9.70;99.90;;;;;;5094135;28;20048;-66
2022/11/06 01:08:02;;;;;;;13.48;6.80;;;9.60;99.90;;;;;;5095123;28;20048;-66
2022/11/06 01:10:28;;;;;;;11.45;5.90;;;9.60;99.90;;;;;;5093209;28;20470;-66
2022/11/06 01:12:54;;;;;;;9.95;5.53;;;9.60;99.90;;;;;;5112310;28;20039;-67
2022/11/06 01:15:20;;;;;;;10.85;5.88;;;9.50;99.90;;;;;;5110981;28;20028;-66
2022/11/06 01:17:45;;;;;;;10.90;6.00;;;9.50;99.90;;;;;;5112135;28;20077;-66
2022/11/06 01:20:11;;;;;;;10.73;6.40;;;9.50;99.90;;;;;;5109909;27;20513;-66
2022/11/06 01:22:36;;;;;;;10.80;6.00;;;9.50;99.90;;;;;;5111165;28;20101;-67
2022/11/06 01:25:02;;;;;;;11.38;6.13;;;9.40;99.90;;;;;;5112212;28;20040;-66
2022/11/06 01:27:28;;;;;;;9.98;6.47;;;9.40;99.90;;;;;;5095173;28;20052;-66
2022/11/06 01:29:54;;;;;;;12.32;6.00;;;9.40;99.90;;;;;;5112059;28;20039;-66
2022/11/06 01:32:20;;;;;;;12.40;6.63;;;9.40;99.90;;;;;;5113651;27;20386;-66
2022/11/06 01:34:48;;;;;;;12.52;6.38;;;9.30;99.90;;;;;;5110784;28;20028;-65
2022/11/06 01:37:14;;;;;;;12.63;6.95;;;9.30;99.90;;;;;;5112112;28;20100;-66
2022/11/06 01:39:39;;;;;;;15.70;6.63;;;9.30;99.90;;;;;;5094464;28;20039;-66
2022/11/06 01:42:05;;;;;;;12.98;6.35;;;9.30;99.90;;;;;;5111408;27;20490;-67
2022/11/06 01:44:39;;;;;;;13.40;6.60;;;9.30;99.90;;;;;;5100878;28;20047;-68
2022/11/06 01:47:22;;;;;;;13.48;7.35;;;9.30;99.90;;;;;;5110252;28;20086;-67
2022/11/06 01:49:50;;;;;;;9.27;6.10;;;9.30;99.90;;;;;;5111258;28;20043;-66
2022/11/06 01:52:17;;;;;;;14.25;6.63;;;9.30;99.90;;;;;;5110843;28;20131;-66
2022/11/06 01:54:45;;;;;;;9.15;6.05;;;9.20;99.90;;;;;;5095188;28;20066;-67
2022/11/06 01:57:11;;;;;;;9.23;5.80;;;9.20;99.90;;;;;;5109765;28;20040;-66
2022/11/06 01:59:42;;;;;;;11.13;6.70;;;9.20;99.90;;;;;;5112553;27;20047;-67
2022/11/06 02:02:07;;;;;;;11.57;6.45;;;9.20;99.90;;;;;;5111099;28;20040;-65
2022/11/06 02:04:40;;;;;;;9.65;6.85;;;9.20;99.90;;;;;;5115387;27;20825;-66
2022/11/06 02:07:06;;;;;;;13.02;7.22;;;9.20;99.90;;;;;;5111372;28;20111;-66
2022/11/06 02:09:33;;;;;;;11.80;6.43;;;9.20;99.90;;;;;;5111051;28;20031;-66
2022/11/06 02:12:17;;;;;;;11.05;6.50;;;9.20;99.90;;;;;;5110758;28;20459;-67
2022/11/06 02:14:59;;;;;;;11.57;6.47;;;9.20;99.90;;;;;;5111724;27;20486;-66
2022/11/06 02:17:53;;;;;;;12.93;6.65;;;9.20;99.90;;;;;;5111645;28;20497;-66
2022/11/06 02:20:40;;;;;;;10.20;6.38;;;9.10;99.90;;;;;;5107121;28;20132;-66
2022/11/06 02:23:43;;;;;;;11.18;6.63;;;9.20;99.90;;;;;;5110827;28;20032;-66
2022/11/06 02:26:23;;;;;;;;;;;9.20;99.90;;;;;;5093103;28;20031;-66
2022/11/06 02:29:11;;;;;;;11.45;6.47;;;9.10;99.90;;;;;;5092022;28;20610;-67
2022/11/06 02:31:42;;;;;;;11.07;6.40;;;9.10;99.90;;;;;;5107311;28;20051;-66
2022/11/06 02:34:12;;;;;;;12.40;6.38;;;9.10;99.90;;;;;;5109646;28;20470;-65
2022/11/06 02:36:44;;;;;;;13.95;6.75;;;9.10;99.90;;;;;;5105681;28;20046;-66
2022/11/06 02:39:14;;;;;;;9.75;6.78;;;9.10;99.90;;;;;;5110059;28;20031;-66
2022/11/06 02:41:45;;;;;;;10.57;6.47;;;9.10;99.90;;;;;;5110718;28;20474;-67
2022/11/06 02:44:19;;;;;;;11.20;6.35;;;9.20;99.90;;;;;;5110638;28;20039;-66
2022/11/06 02:46:58;;;;;;;10.43;6.10;;;9.10;99.90;;;;;;5108214;28;20039;-67
2022/11/06 02:49:32;;;;;;;13.35;6.18;;;9.10;99.90;;;;;;5110357;28;20043;-65
2022/11/06 02:52:07;;;;;;;11.43;6.00;;;9.10;99.90;;;;;;5102152;28;20036;-66
2022/11/06 02:54:37;;;;;;;12.35;6.38;;;9.20;99.90;;;;;;5093537;28;20058;-65
2022/11/06 02:57:06;;;;;;;10.75;6.47;;;9.20;99.90;;;;;;5092208;28;20055;-66
2022/11/06 02:59:41;;;;;;;13.50;6.32;;;9.20;99.90;;;;;;5110246;28;20052;-67
2022/11/06 03:02:11;;;;;;;10.35;5.70;;;9.20;99.90;;;;;;5108215;28;20085;-65
2022/11/06 03:04:46;;;;;;;11.77;5.80;;;9.20;99.90;;;;;;5109205;28;20071;-67
2022/11/06 03:07:42;;;;;;;7.22;5.43;;;9.20;99.90;;;;;;5107703;28;20044;-66
2022/11/06 03:10:08;;;;;;;10.30;5.57;;;9.20;99.90;;;;;;5106415;28;20059;-66
2022/11/06 03:12:49;;;;;;;11.68;5.80;;;9.20;99.90;;;;;;5110074;28;20375;-67
2022/11/06 03:15:26;;;;;;;15.32;6.07;;;9.10;99.90;;;;;;5110140;28;20032;-66
2022/11/06 03:18:13;;;;;;;10.43;5.78;;;9.10;99.90;;;;;;5108026;28;20394;-65
2022/11/06 03:21:29;;;;;;;13.60;6.07;;;9.10;99.90;;;;;;5067083;28;20117;-65
2022/11/06 03:24:05;;;;;;;13.35;5.85;;;9.10;99.90;;;;;;5048329;28;20083;-66
2022/11/06 03:26:37;;;;;;;12.80;5.88;;;9.10;99.90;;;;;;5051485;28;20113;-65
2022/11/06 03:29:28;;;;;;;11.82;5.60;;;9.10;99.90;;;;;;5049487;28;20128;-65
2022/11/06 03:32:05;;;;;;;11.40;5.60;;;9.10;99.90;;;;;;5006096;28;20058;-67
2022/11/06 03:34:38;;;;;;;8.05;5.20;;;9.00;99.90;;;;;;4991165;28;20452;-66
2022/11/06 03:37:14;;;;;;;12.45;5.18;;;9.00;99.90;;;;;;4992128;28;20050;-66
2022/11/06 03:39:47;;;;;;;9.45;5.05;;;9.00;99.90;;;;;;4984925;28;20045;-65
2022/11/06 03:42:31;;;;;;;13.05;5.47;;;9.00;99.90;;;;;;4990882;28;20089;-64
2022/11/06 03:45:05;;;;;;;12.80;5.60;;;9.00;99.90;;;;;;4975980;28;20053;-67
2022/11/06 03:47:43;;;;;;;9.90;5.22;;;9.00;99.90;;;;;;5007466;28;20046;-65
2022/11/06 03:50:08;;;;;;;10.27;5.03;;;9.00;99.90;;;;;;4989925;28;20521;-65
2022/11/06 03:52:41;;;;;;;11.63;5.35;;;9.00;99.90;;;;;;4991951;28;20121;-65
2022/11/06 03:55:19;;;;;;;11.15;5.32;;;9.00;99.90;;;;;;4990999;28;20045;-66
2022/11/06 03:57:54;;;;;;;14.05;5.32;;;9.00;99.90;;;;;;4992223;28;20619;-66
2022/11/06 04:00:19;;;;;;;12.48;5.10;;;9.00;99.90;;;;;;4995584;28;20060;-65
2022/11/06 04:03:03;;;;;;;11.40;5.95;;;9.00;99.90;;;;;;5027878;28;20496;-65
2022/11/06 04:05:34;;;;;;;9.77;5.20;;;9.00;99.90;;;;;;5027208;28;20085;-66
2022/11/06 04:13:56;;;;;;;12.15;5.40;;;8.90;99.90;;;;;;5088689;28;20048;-66
2022/11/06 04:16:28;;;;;;;11.88;6.80;;;8.90;99.90;;;;;;5088755;28;20398;-66
2022/11/06 04:18:54;;;;;;;20.63;9.80;;;9.00;99.90;;;;;;5101081;28;20469;-67
2022/11/06 04:21:45;;;;;;;15.38;9.25;;;8.90;99.90;;;;;;5093978;27;20077;-65
2022/11/06 04:27:24;;;;;;;18.67;9.43;;;9.00;99.90;;;;;;5012627;28;20401;-67
2022/11/06 04:29:50;;;;;;;16.25;8.10;;;9.00;99.90;;;;;;5014934;28;20145;-66
2022/11/06 04:32:28;;;;;;;9.25;5.60;;;9.00;99.90;;;;;;5014654;28;20520;-66
2022/11/06 04:34:59;;;;;;;12.82;5.97;;;9.00;99.90;;;;;;5018115;28;20045;-66
2022/11/06 04:37:35;;;;;;;9.80;5.10;;;9.00;99.90;;;;;;5015806;28;20044;-66
2022/11/06 04:40:30;;;;;;;11.60;5.03;;;9.00;99.90;;;;;;5014801;28;20072;-65
2022/11/06 04:43:23;;;;;;;9.13;4.70;;;9.00;99.90;;;;;;5009207;28;20103;-67
2022/11/06 04:45:52;;;;;;;10.95;4.78;;;9.00;99.90;;;;;;4998427;28;20057;-66
2022/11/06 04:48:18;;;;;;;13.52;5.03;;;9.00;99.90;;;;;;4992356;28;20057;-66
2022/11/06 04:50:51;;;;;;;7.28;4.00;;;9.00;99.90;;;;;;5010778;28;20050;-65
2022/11/06 04:53:19;;;;;;;11.23;4.55;;;9.00;99.90;;;;;;5011373;28;20041;-66
2022/11/06 04:55:50;;;;;;;8.82;4.53;;;9.00;99.90;;;;;;5001275;28;20129;-66
2022/11/06 04:58:16;;;;;;;15.88;4.38;;;9.00;99.90;;;;;;4994763;28;20072;-65
2022/11/06 05:00:45;;;;;;;9.23;4.28;;;9.00;99.90;;;;;;5012386;28;20044;-65
2022/11/06 05:03:11;;;;;;;8.85;5.15;;;9.00;99.90;;;;;;5071063;28;20040;-67
2022/11/06 05:05:37;;;;;;;8.40;3.97;;;9.00;99.90;;;;;;5059378;28;20051;-66
2022/11/06 05:08:02;;;;;;;9.23;4.10;;;9.00;99.90;;;;;;5052493;28;20040;-66
2022/11/06 05:10:28;;;;;;;9.98;4.40;;;9.00;99.90;;;;;;5053583;28;20411;-66
2022/11/06 05:12:54;;;;;;;11.30;4.50;;;9.00;99.90;;;;;;5069601;28;20085;-66
2022/11/06 05:15:19;;;;;;;9.63;4.05;;;9.00;99.90;;;;;;5053359;28;20048;-66
2022/11/06 05:17:45;;;;;;;8.80;3.90;;;9.00;99.90;;;;;;5053737;28;20047;-66
2022/11/06 05:20:11;;;;;;;9.45;3.88;;;9.00;99.90;;;;;;5070414;28;20507;-65
2022/11/06 05:25:28;;;;;;;8.13;3.53;;;9.00;99.90;;;;;;5111991;27;20035;-66
2022/11/06 05:27:54;;;;;;;7.35;4.00;;;9.10;99.90;;;;;;5101914;27;20031;-65
2022/11/06 05:30:20;;;;;;;8.80;3.97;;;9.10;99.90;;;;;;5097501;27;20054;-66
2022/11/06 05:32:45;;;;;;;8.32;3.67;;;9.00;99.90;;;;;;5114475;28;20065;-66
2022/11/06 05:35:11;;;;;;;7.95;3.72;;;9.10;99.90;;;;;;5114694;27;20035;-66
2022/11/06 05:37:37;;;;;;;10.30;3.80;;;9.00;99.90;;;;;;5115390;27;20035;-67
2022/11/06 05:40:03;;;;;;;8.25;3.83;;;9.00;99.90;;;;;;5098430;27;20458;-65
2022/11/06 05:42:28;;;;;;;8.20;3.45;;;9.10;99.90;;;;;;5115141;27;20043;-66
2022/11/06 05:44:54;;;;;;;7.80;3.20;;;9.10;99.90;;;;;;5096474;27;20038;-65
2022/11/06 05:47:19;;;;;;;6.85;3.08;;;9.10;99.90;;;;;;5114857;27;20054;-66
2022/11/06 05:49:45;;;;;;;7.28;2.90;;;9.10;99.90;;;;;;5133217;27;20031;-65
2022/11/06 05:52:10;;;;;;;9.52;3.28;;;9.10;99.90;;;;;;5114896;27;20554;-67
2022/11/06 05:54:36;;;;;;;9.48;3.30;;;9.10;99.90;;;;;;5115075;27;20054;-66
2022/11/06 05:57:02;;;;;;;7.07;3.20;;;9.10;99.90;;;;;;5097669;27;20126;-65
2022/11/06 05:59:27;;;;;;;10.63;3.70;;;9.10;99.90;;;;;;5119069;27;20043;-65
2022/11/06 06:01:53;;;;;;;7.53;2.90;;;9.10;99.90;;;;;;5097480;27;20065;-66
2022/11/06 06:04:19;;;;;;;10.73;2.92;;;9.20;99.90;;;;;;5114705;27;20047;-65
2022/11/06 06:06:45;;;;;;;8.98;3.90;;;9.20;99.90;;;;;;5114606;27;20043;-66
2022/11/06 06:09:10;;;;;;;7.45;2.88;;;9.20;99.90;;;;;;5115021;27;20047;-66
2022/11/06 06:11:36;;;;;;;8.60;3.10;;;9.20;99.90;;;;;;5113584;27;20083;-66
2022/11/06 06:14:01;;;;;;;11.07;3.03;;;9.20;99.90;;;;;;5113810;27;20039;-64
2022/11/06 06:16:27;;;;;;;5.18;3.17;;;9.30;99.90;;;;;;5115342;27;20046;-66
2022/11/06 06:18:53;;;;;;;10.38;3.08;;;9.20;99.90;;;;;;5131948;27;20044;-66
2022/11/06 06:21:18;;;;;;;10.55;2.85;;;9.30;99.90;;;;;;5097011;27;20098;-65
2022/11/06 06:23:44;;;;;;;8.73;3.00;;;9.30;99.90;;;;;;5115157;27;20815;-66
2022/11/06 06:26:10;;;;;;;9.05;3.17;;;9.30;99.90;;;;;;5113241;27;20042;-66
2022/11/06 06:28:36;;;;;;;11.00;3.10;;;9.30;99.90;;;;;;5113784;27;20409;-65
2022/11/06 06:31:05;;;;;;;4.85;2.80;;;9.30;99.90;;;;;;5111724;27;20042;-66
2022/11/06 06:33:32;;;;;;;9.30;3.30;;;9.40;99.90;;;;;;5114298;27;20114;-65
2022/11/06 06:35:57;;;;;;;12.73;2.63;;;9.40;99.90;;;;;;5114173;27;20042;-66
2022/11/06 06:38:24;;;;;;;6.57;2.38;;;9.40;99.90;;;;;;5113800;27;20168;-65
2022/11/06 06:40:50;;;;;;;8.70;2.53;;;9.40;99.90;;;;;;5130014;27;20035;-66
2022/11/06 06:43:16;;;;;;;13.63;2.80;;;9.40;99.90;;;;;;5113909;27;20047;-65
2022/11/06 06:45:41;;;;;;;9.68;2.70;;;9.40;99.90;;;;;;5106370;27;20147;-66
2022/11/06 06:48:08;;;;;;;13.13;2.60;;;9.40;99.90;;;;;;5114549;27;20176;-66
2022/11/06 06:50:33;;;;;;;11.60;2.53;;;9.50;99.90;;;;;;5116297;27;20049;-65
2022/11/06 06:52:59;;;;;;;8.57;2.47;;;9.50;99.90;;;;;;5104469;27;20126;-64
2022/11/06 06:55:25;;;;;;;7.95;2.75;;;9.50;99.90;;;;;;5089991;27;20051;-66
2022/11/06 06:58:00;;;;;;;6.28;2.30;;;9.50;99.90;;;;;;5111638;27;20031;-66
2022/11/06 07:00:27;;;;;;;7.03;2.75;;;9.60;99.90;;;;;;5124240;27;20042;-66
2022/11/06 07:02:53;;;;;;;8.98;2.63;;;9.60;99.90;;;;;;5114522;27;20039;-67
2022/11/06 07:05:19;;;;;;;5.47;2.20;;;9.60;99.90;;;;;;5112995;27;20038;-66
2022/11/06 07:07:45;;;;;;;7.68;2.45;;;9.70;99.90;;;;;;5131507;27;20093;-65
2022/11/06 07:10:11;;;;;;;7.50;2.30;;;9.70;99.90;;;;;;5131255;27;20039;-66
2022/11/06 07:12:36;;;;;;;6.10;2.30;;;9.70;99.90;;;;;;5114198;27;20103;-67
2022/11/06 07:15:02;;;;;;;7.78;2.58;;;9.70;99.90;;;;;;5115608;27;20045;-66
2022/11/06 07:17:28;;;;;;;8.85;2.25;;;9.70;99.90;;;;;;5118430;27;20102;-66
2022/11/06 07:19:54;;;;;;;12.55;2.58;;;9.70;99.90;;;;;;5120363;27;20053;-65
2022/11/06 07:22:19;;;;;;;12.07;2.60;;;9.70;99.90;;;;;;5119682;27;20474;-66
2022/11/06 07:24:45;;;;;;;10.60;2.40;;;9.80;99.90;;;;;;5113858;27;20054;-66
2022/11/06 07:27:10;;;;;;;9.70;2.25;;;9.80;99.90;;;;;;5112406;28;20039;-65
2022/11/06 07:29:36;;;;;;;9.05;2.33;;;9.80;99.90;;;;;;5114797;27;20046;-65
2022/11/06 07:32:02;;;;;;;5.72;1.98;;;9.90;99.90;;;;;;5112896;28;20035;-66
2022/11/06 07:34:27;;;;;;;6.88;2.40;;;9.90;99.90;;;;;;5119551;28;20046;-65
2022/11/06 07:36:53;;;;;;;8.90;2.30;;;9.90;99.90;;;;;;5118540;28;20046;-65
2022/11/06 07:39:19;;;;;;;10.65;2.33;;;9.90;99.90;;;;;;5112634;28;20034;-65
2022/11/06 07:41:44;;;;;;;8.50;2.38;;;9.90;99.90;;;;;;5119753;28;20047;-66
2022/11/06 07:44:10;;;;;;;10.88;2.60;;;10.00;99.90;;;;;;5112926;28;20099;-66
2022/11/06 07:46:36;;;;;;;10.02;2.78;;;10.00;99.90;;;;;;5113392;28;20038;-67
2022/11/06 07:49:01;;;;;;;6.65;1.90;;;10.00;99.90;;;;;;5123155;28;20039;-66
2022/11/06 07:51:27;;;;;;;6.97;2.10;;;10.00;99.90;;;;;;5110615;28;20062;-66
2022/11/06 07:53:53;;;;;;;6.57;2.20;;;10.00;99.90;;;;;;5124389;28;20487;-65
2022/11/06 07:56:18;;;;;;;7.15;2.58;;;10.00;99.90;;;;;;5118994;27;20388;-65
2022/11/06 07:58:44;;;;;;;4.97;2.38;;;10.00;99.90;;;;;;5135252;27;20035;-66
2022/11/06 08:01:15;;;;;;;6.85;2.08;;;10.00;99.90;;;;;;5124895;27;20042;-66
2022/11/06 08:03:41;;;;;;;6.88;2.00;;;10.10;99.90;;;;;;5121988;27;20110;-66
2022/11/06 08:06:06;;;;;;;6.03;2.17;;;10.10;99.90;;;;;;5121094;27;20518;-66
2022/11/06 08:08:32;;;;;;;6.95;2.42;;;10.10;99.90;;;;;;5120416;27;20042;-67
2022/11/06 08:11:03;;;;;;;6.32;2.13;;;10.10;99.90;;;;;;5116018;27;20040;-67
2022/11/06 08:13:28;;;;;;;9.07;2.53;;;10.10;99.90;;;;;;5116054;27;20118;-66
2022/11/06 08:15:54;;;;;;;7.20;1.83;;;10.20;99.90;;;;;;5117426;27;20426;-66
2022/11/06 08:18:19;;;;;;;7.50;1.90;;;10.10;99.90;;;;;;5103122;27;20489;-66
2022/11/06 08:20:45;;;;;;;7.07;2.20;;;10.20;99.90;;;;;;5114582;27;20062;-66
2022/11/06 08:23:12;;;;;;;7.45;2.83;;;10.10;99.90;;;;;;5099819;27;20409;-67
2022/11/06 08:25:38;;;;;;;5.88;1.98;;;10.20;99.90;;;;;;5116020;27;20031;-67
2022/11/06 08:28:04;;;;;;;7.80;2.38;;;10.20;99.90;;;;;;5116232;27;20039;-66
2022/11/06 08:30:30;;;;;;;5.85;1.88;;;10.20;99.90;;;;;;5125229;27;20041;-67
2022/11/06 08:33:06;;;;;;;8.88;2.25;;;10.20;99.90;;;;;;5108475;27;20035;-67
2022/11/06 08:35:33;;;;;;;7.70;2.13;;;10.10;99.90;;;;;;5122140;27;20673;-67
2022/11/06 08:37:59;;;;;;;4.57;2.10;;;10.20;99.90;;;;;;5116866;27;20039;-67
2022/11/06 08:40:25;;;;;;;6.95;1.92;;;10.20;99.90;;;;;;5124369;27;20477;-67
2022/11/06 08:42:51;;;;;;;6.35;2.05;;;10.20;99.90;;;;;;5097902;27;20054;-66
2022/11/06 08:45:16;;;;;;;9.18;2.53;;;10.30;99.90;;;;;;5121788;27;20035;-66
2022/11/06 08:47:42;;;;;;;6.50;2.08;;;10.30;99.90;;;;;;5111843;27;20082;-67
2022/11/06 08:50:08;;;;;;;8.20;2.33;;;10.30;99.90;;;;;;5119038;27;20027;-67
2022/11/06 08:52:34;;;;;;;6.20;2.35;;;10.30;99.90;;;;;;5121400;27;20034;-67
2022/11/06 08:54:59;;;;;;;5.63;2.22;;;10.40;99.90;;;;;;5116765;27;20100;-67
2022/11/06 08:57:25;;;;;;;9.13;2.00;;;10.40;99.90;;;;;;5121229;27;20061;-66
2022/11/06 08:59:51;;;;;;;8.35;2.20;;;10.40;99.90;;;;;;5119397;27;20072;-66
2022/11/06 09:02:17;;;;;;;7.75;2.40;;;10.50;99.90;;;;;;5114412;27;20046;-67
2022/11/06 09:04:42;;;;;;;10.15;3.30;;;10.50;99.90;;;;;;5116703;27;20138;-67
2022/11/06 09:07:08;;;;;;;6.97;2.40;;;10.50;99.90;;;;;;5115372;27;20039;-67
2022/11/06 09:09:33;;;;;;;7.97;2.03;;;10.70;99.90;;;;;;5118114;27;20031;-67
2022/11/06 09:12:00;;;;;;;11.85;3.50;;;10.90;99.90;;;;;;5121032;27;20047;-66
2022/11/06 09:14:26;;;;;;;6.25;2.25;;;11.20;99.90;;;;;;5118391;27;20082;-67
2022/11/06 09:16:53;;;;;;;7.82;2.28;;;11.60;99.90;;;;;;5132067;27;20533;-66
2022/11/06 09:19:19;;;;;;;7.03;2.00;;;11.70;99.90;;;;;;5121537;27;20044;-66
2022/11/06 09:21:45;;;;;;;5.63;2.50;;;11.80;99.90;;;;;;5118205;27;20058;-66
2022/11/06 09:24:11;;;;;;;9.95;2.25;;;11.70;99.90;;;;;;5117844;27;20039;-66
2022/11/06 09:26:37;;;;;;;7.55;1.60;;;11.60;99.90;;;;;;5115835;27;20125;-66
2022/11/06 09:29:03;;;;;;;6.10;1.83;;;11.50;99.90;;;;;;5118068;27;20481;-67
2022/11/06 09:31:28;;;;;;;5.10;1.95;;;11.40;99.90;;;;;;5114289;27;20047;-66
2022/11/06 09:33:54;;;;;;;4.50;2.10;;;11.30;99.90;;;;;;5132872;27;20047;-66
2022/11/06 09:36:20;;;;;;;5.18;1.60;;;11.30;99.90;;;;;;5116349;27;20035;-65
2022/11/06 09:38:46;;;;;;;6.65;2.20;;;11.30;99.90;;;;;;5115473;27;20043;-65
2022/11/06 09:41:20;;;;;;;7.60;2.30;;;11.40;99.90;;;;;;5116623;27;20039;-66
2022/11/06 09:44:15;;;;;;;6.07;1.80;;;11.40;99.90;;;;;;5115609;27;20080;-65
2022/11/06 09:46:44;;;;;;;5.10;1.80;;;11.40;99.90;;;;;;5116427;27;20398;-67
2022/11/06 09:49:22;;;;;;;4.47;1.88;;;11.40;99.90;;;;;;5117362;27;20127;-66
2022/11/06 09:51:59;;;;;;;5.60;1.88;;;11.40;99.90;;;;;;5114582;27;20483;-66
2022/11/06 09:54:31;;;;;;;5.80;2.00;;;11.40;99.90;;;;;;5116718;27;20035;-67
2022/11/06 09:57:08;;;;;;;8.38;1.90;;;11.40;99.90;;;;;;5114495;27;20358;-66
2022/11/06 09:59:37;;;;;;;4.65;1.80;;;11.30;99.90;;;;;;5111798;27;20073;-66
2022/11/06 10:02:21;;;;;;;5.43;1.63;;;11.30;99.90;;;;;;5094031;27;20051;-67
2022/11/06 10:05:10;;;;;;;7.05;1.80;;;11.30;99.90;;;;;;5115364;27;20497;-66
2022/11/06 10:07:38;;;;;;;5.22;1.60;;;11.30;99.90;;;;;;5114939;27;20038;-66
2022/11/06 10:10:10;;;;;;;6.25;1.80;;;11.20;99.90;;;;;;5119095;27;20544;-64
2022/11/06 10:13:09;;;;;;;5.70;1.83;;;11.20;99.90;;;;;;5116734;27;20058;-65
2022/11/06 10:15:50;;;;;;;10.90;2.72;;;11.20;99.90;;;;;;5114616;27;20043;-65
2022/11/06 10:18:32;;;;;;;6.05;2.50;;;11.20;99.90;;;;;;5116417;27;20118;-65
2022/11/06 10:21:24;;;;;;;11.63;2.60;;;11.20;99.90;;;;;;5112223;27;20051;-66
2022/11/06 10:23:58;;;;;;;6.15;1.95;;;11.30;99.90;;;;;;5112951;27;20500;-66
2022/11/06 10:26:38;;;;;;;6.72;2.03;;;11.30;99.90;;;;;;5098093;27;20324;-66
2022/11/06 10:29:31;;;;;;;5.85;1.70;;;11.30;99.90;;;;;;5092474;27;20534;-66
2022/11/06 10:32:12;;;;;;;8.07;2.20;;;11.40;99.90;;;;;;5090231;27;20035;-66
2022/11/06 10:34:45;;;;;;;6.22;2.63;;;11.40;99.90;;;;;;5099576;27;20039;-66
2022/11/06 10:37:15;;;;;;;19.13;12.05;;;11.40;99.90;;;;;;5116337;27;20043;-65
2022/11/06 10:39:41;;;;;;;7.88;2.28;;;11.40;99.90;;;;;;5113507;27;20043;-67
2022/11/06 10:42:23;;;;;;;20.80;14.50;;;11.40;99.90;;;;;;5115821;27;20043;-67
2022/11/06 10:44:53;;;;;;;5.23;2.27;;;11.40;99.90;;;;;;5110834;27;20039;-65
2022/11/06 10:47:21;;;;;;;7.38;1.85;;;11.50;99.90;;;;;;5097582;27;20481;-66
2022/11/06 10:49:52;;;;;;;3.92;1.88;;;11.60;99.90;;;;;;5131510;27;20098;-66
2022/11/06 10:52:27;;;;;;;6.13;1.77;;;11.80;99.90;;;;;;5094697;27;20121;-67
2022/11/06 10:55:14;;;;;;;5.82;2.15;;;11.90;99.90;;;;;;5116590;27;20409;-66
2022/11/06 10:57:51;;;;;;;3.80;2.03;;;11.90;99.90;;;;;;5116110;27;20507;-66
2022/11/06 11:00:17;;;;;;;7.25;1.92;;;11.90;99.90;;;;;;5113788;27;20848;-67
2022/11/06 11:02:51;;;;;;;7.15;1.70;;;11.90;99.90;;;;;;5118734;27;20114;-66
2022/11/06 11:05:19;;;;;;;5.05;1.67;;;12.00;99.90;;;;;;5111656;27;20117;-67
2022/11/06 11:07:47;;;;;;;4.60;1.50;;;12.00;99.90;;;;;;5112474;27;20054;-67
2022/11/06 11:10:22;;;;;;;4.60;1.88;;;12.00;99.90;;;;;;5115842;27;20035;-66
2022/11/06 11:12:48;;;;;;;6.30;1.80;;;12.00;99.90;;;;;;5110831;27;20051;-66
2022/11/06 11:15:20;;;;;;;6.80;1.80;;;12.00;99.90;;;;;;5090440;27;20166;-67
2022/11/06 11:18:10;;;;;;;4.82;1.90;;;12.00;99.90;;;;;;5109380;27;20073;-66
2022/11/06 11:20:38;;;;;;;6.28;1.85;;;12.00;99.90;;;;;;5110262;27;20397;-67
2022/11/06 11:23:21;;;;;;;4.78;1.27;;;12.00;99.90;;;;;;5114942;27;20574;-66
2022/11/06 11:25:52;;;;;;;4.97;1.33;;;12.00;99.90;;;;;;5117320;27;20046;-67
2022/11/06 11:28:35;;;;;;;6.43;1.58;;;12.00;99.90;;;;;;5113175;27;20114;-67
2022/11/06 11:31:12;;;;;;;4.43;1.45;;;12.00;99.90;;;;;;5109523;28;20500;-66
2022/11/06 11:33:40;;;;;;;4.15;1.65;;;12.00;99.90;;;;;;5113435;27;20043;-67
2022/11/06 11:36:07;;;;;;;7.35;1.77;;;12.00;99.90;;;;;;5111081;28;20114;-67
2022/11/06 11:38:39;;;;;;;7.18;1.70;;;12.00;99.90;;;;;;5093302;28;20054;-65
2022/11/06 11:41:19;;;;;;;4.75;1.40;;;12.00;99.90;;;;;;5107886;28;20045;-66
2022/11/06 11:44:18;;;;;;;3.72;1.45;;;12.00;99.90;;;;;;5108734;28;20051;-67
2022/11/06 11:46:47;;;;;;;5.07;1.27;;;11.90;99.90;;;;;;4989812;28;20943;-66
2022/11/06 11:49:44;;;;;;;4.00;2.05;;;12.00;99.90;;;;;;4988843;28;20209;-66
2022/11/06 11:52:15;;;;;;;3.38;1.50;;;12.00;99.90;;;;;;4948647;28;20130;-66
2022/11/06 11:54:48;;;;;;;5.70;1.77;;;12.00;99.90;;;;;;4954131;28;20046;-66
2022/11/06 11:57:25;;;;;;;3.92;1.77;;;12.00;99.90;;;;;;4965048;28;20050;-66
2022/11/06 12:00:04;;;;;;;4.85;1.70;;;12.10;99.90;;;;;;4945636;28;20121;-67
2022/11/06 12:02:40;;;;;;;6.85;1.40;;;12.00;99.90;;;;;;4949560;28;20063;-66
2022/11/06 12:05:12;;;;;;;6.53;1.30;;;12.10;99.90;;;;;;4957490;28;20113;-67
2022/11/06 12:07:42;;;;;;;5.82;1.60;;;12.10;99.90;;;;;;4951417;28;20118;-66
2022/11/06 12:10:28;;;;;;;5.50;1.40;;;12.20;99.90;;;;;;4947215;28;20054;-66
2022/11/06 12:12:56;;;;;;;4.43;1.38;;;12.20;99.90;;;;;;4962640;28;20043;-66
2022/11/06 12:15:54;;;;;;;4.22;1.25;;;12.20;99.90;;;;;;4948642;28;20125;-66
2022/11/06 12:18:33;;;;;;;6.28;1.40;;;12.30;99.90;;;;;;4946847;28;20058;-66
2022/11/06 12:21:06;;;;;;;5.85;1.30;;;12.40;99.90;;;;;;4946412;28;20098;-66
2022/11/06 12:23:57;;;;;;;6.85;1.80;;;12.40;99.90;;;;;;5042666;28;20064;-66
2022/11/06 12:26:34;;;;;;;5.07;1.45;;;12.50;99.90;;;;;;5022713;28;20037;-66
2022/11/06 12:29:26;;;;;;;5.63;1.63;;;12.40;99.90;;;;;;5115596;28;20035;-67
2022/11/06 12:32:33;;;;;;;5.45;1.60;;;12.30;99.90;;;;;;5105909;28;20058;-65
2022/11/06 12:35:04;;;;;;;5.80;1.70;;;12.30;99.90;;;;;;5118864;28;20036;-66
2022/11/06 12:38:17;;;;;;;3.25;1.67;;;12.30;99.90;;;;;;5117275;28;20042;-66
2022/11/06 12:40:58;;;;;;;5.70;1.95;;;12.30;99.90;;;;;;5021305;28;20500;-66
2022/11/06 12:43:46;;;;;;;9.77;2.22;;;12.30;99.90;;;;;;5033773;28;20053;-66
2022/11/06 12:46:20;;;;;;;3.25;1.30;;;12.30;99.90;;;;;;5034655;28;20043;-67
2022/11/06 12:49:22;;;;;;;4.55;1.50;;;12.20;99.90;;;;;;5040827;28;20112;-66
2022/11/06 12:52:03;;;;;;;4.13;1.50;;;12.10;99.90;;;;;;5035772;28;20040;-66
2022/11/06 12:54:52;;;;;;;8.82;1.38;;;12.10;99.90;;;;;;5042452;28;20530;-66
2022/11/06 12:57:27;;;;;;;6.47;1.38;;;12.10;99.90;;;;;;5040172;28;20088;-65
2022/11/06 13:00:19;;;;;;;7.18;2.40;;;12.10;99.90;;;;;;5034631;28;20176;-67
2022/11/06 13:03:00;;;;;;;6.10;1.27;;;12.00;99.90;;;;;;5029888;28;20485;-66
2022/11/06 13:05:54;;;;;;;5.07;1.23;;;12.00;99.90;;;;;;5020528;28;20053;-66
2022/11/06 13:08:32;;;;;;;5.20;2.08;;;12.00;99.90;;;;;;5048169;28;20036;-66
2022/11/06 13:11:23;;;;;;;5.25;1.70;;;12.00;99.90;;;;;;5033407;28;20423;-66
2022/11/06 13:14:22;;;;;;;3.58;1.20;;;12.00;99.90;;;;;;5040412;28;20036;-67
2022/11/06 13:16:59;;;;;;;6.57;2.15;;;12.00;99.90;;;;;;5094452;27;20418;-66
2022/11/06 13:19:42;;;;;;;4.43;1.65;;;12.00;99.90;;;;;;5090104;27;20039;-66
2022/11/06 13:22:18;;;;;;;4.55;1.20;;;12.00;99.90;;;;;;5105384;27;20420;-65
2022/11/06 13:25:05;;;;;;;6.68;1.60;;;11.90;99.90;;;;;;5114344;27;20487;-66
2022/11/06 13:27:55;;;;;;;4.75;1.30;;;12.00;99.90;;;;;;5112142;27;20039;-67